Pagrindinis puslapis
METAR-TAF:

METAR-TAF

Oro uostai :

Seward, Aliaska, Jungtinės Amerikos Valstijos

platuma: 60-07N, ilguma: 149-27W, Aukštis: 9 m

Dabartinis oras

Ataskaita buvo paskelbta 8 minutes, ne 19:53 UTC
Vėjas 9 kt iš Šiaurės/Šiaurės Rytų su gūsio iki 20 kt
Temperatūra 3°C
Drėgmė 60%
Slėgis 1016 hPa
Matomumas: 16.1 km
Giedras dangus

METAR: PAWD 281953Z AUTO 02009G20KT 10SM CLR 03/M04 A2999 RMK AO2 SLP154 T00281039 TSNO

Laikas: 12:01 (20:01 UTC)


TAF: trūkstamas

Orai ataskaitas ir orų prognozės (METAR, TAF).

turimą stotys yra geltonos ir raudonos taškus žemėlapyje.

Perkelti pele per norėdami pamatyti stoties vardą.

Tada spustelėkite, norėdami matyti oro stebėjimo ir prognozės.

Norėdami pakeisti žemėlapį: spustelėkite ant žalios mygtukų su juodo kryžiaus žemyn,; žalią mygtuką su brūkšneliu, jei norite nutolinti; arba žalių rodyklių gretimoms žemėlapius.


METAR-TAF: